createdAt,value
2019-04-26T00:01:45.851Z,100443.08
2019-04-26T00:04:14.506Z,100442.19
2019-04-26T00:06:43.137Z,100435.12
2019-04-26T00:09:32.507Z,100431.25
2019-04-26T00:12:18.984Z,100437.76
2019-04-26T00:14:49.232Z,100432.30
2019-04-26T00:17:22.372Z,100436.06
2019-04-26T00:19:51.705Z,100420.59
2019-04-26T00:22:21.207Z,100424.58
2019-04-26T00:24:50.271Z,100425.27
2019-04-26T00:27:19.071Z,100426.91
2019-04-26T00:29:47.556Z,100432.32
2019-04-26T00:32:17.201Z,100425.85
2019-04-26T00:34:45.716Z,100416.85
2019-04-26T00:37:14.168Z,100413.83
2019-04-26T00:39:42.666Z,100402.09
2019-04-26T00:42:12.197Z,100406.61
2019-04-26T00:44:41.667Z,100399.71
2019-04-26T00:47:10.406Z,100399.55
2019-04-26T00:49:43.773Z,100393.66
2019-04-26T00:52:09.869Z,100392.81
2019-04-26T00:54:39.256Z,100387.05
2019-04-26T00:57:08.507Z,100382.52
2019-04-26T00:59:38.274Z,100383.50
2019-04-26T01:02:08.975Z,100375.41
2019-04-26T01:04:37.415Z,100381.21
2019-04-26T01:07:05.879Z,100379.59
2019-04-26T01:09:34.246Z,100370.23
2019-04-26T01:12:02.635Z,100369.02
2019-04-26T01:14:31.149Z,100365.97
2019-04-26T01:16:59.616Z,100360.84
2019-04-26T01:19:28.265Z,100359.88
2019-04-26T01:21:58.471Z,100357.56
2019-04-26T01:24:27.908Z,100357.19
2019-04-26T01:26:57.837Z,100351.11
2019-04-26T01:29:26.607Z,100350.34
2019-04-26T01:31:58.178Z,100345.98
2019-04-26T01:34:26.827Z,100345.70
2019-04-26T01:36:56.565Z,100337.80
2019-04-26T01:39:25.814Z,100337.50
2019-04-26T01:42:05.388Z,100338.77
2019-04-26T01:44:41.568Z,100339.70
2019-04-26T01:47:09.975Z,100337.59
2019-04-26T01:49:38.944Z,100333.16
2019-04-26T01:52:10.949Z,100330.69
2019-04-26T01:54:41.878Z,100332.10
2019-04-26T01:57:10.414Z,100324.38
2019-04-26T01:59:42.996Z,100324.97
2019-04-26T02:02:13.091Z,100326.11
2019-04-26T02:04:43.566Z,100321.05
2019-04-26T02:07:12.159Z,100326.31
2019-04-26T02:09:40.639Z,100323.58
2019-04-26T02:12:09.012Z,100323.16
2019-04-26T02:14:37.477Z,100314.77
2019-04-26T02:17:06.000Z,100314.50
2019-04-26T02:19:34.761Z,100308.59
2019-04-26T02:22:10.979Z,100308.21
2019-04-26T02:24:41.350Z,100305.72
2019-04-26T02:27:11.554Z,100298.31
2019-04-26T02:29:40.085Z,100294.10
2019-04-26T02:32:09.580Z,100290.17
2019-04-26T02:34:38.640Z,100290.17
2019-04-26T02:37:08.932Z,100295.16
2019-04-26T02:39:39.784Z,100287.48
2019-04-26T02:42:14.548Z,100290.48
2019-04-26T02:44:47.753Z,100287.48
2019-04-26T02:47:48.189Z,100281.77
2019-04-26T02:50:21.610Z,100285.66
2019-04-26T02:53:05.202Z,100286.05
2019-04-26T02:55:55.126Z,100282.06
2019-04-26T02:58:25.496Z,100282.80
2019-04-26T03:00:54.580Z,100284.70
2019-04-26T03:03:24.510Z,100283.84
2019-04-26T03:05:53.394Z,100282.80
2019-04-26T03:08:23.309Z,100275.16
2019-04-26T03:10:54.860Z,100275.45
2019-04-26T03:13:27.435Z,100276.51
2019-04-26T03:18:44.874Z,100263.38
2019-04-26T03:21:22.620Z,100270.87
2019-04-26T03:23:58.553Z,100267.13
2019-04-26T03:26:31.328Z,100271.66
2019-04-26T03:29:09.037Z,100269.73
2019-04-26T03:31:51.956Z,100270.48
2019-04-26T03:34:15.861Z,100268.08
2019-04-26T03:37:20.611Z,100262.98
2019-04-26T03:39:53.505Z,100263.20
2019-04-26T03:42:25.075Z,100266.03
2019-04-26T03:45:05.069Z,100271.66
2019-04-26T03:47:38.724Z,100277.75
2019-04-26T03:50:16.505Z,100272.59
2019-04-26T03:53:04.829Z,100267.68
2019-04-26T03:55:39.737Z,100262.94
2019-04-26T03:58:53.825Z,100268.86
2019-04-26T04:01:24.078Z,100264.36
2019-04-26T04:03:54.580Z,100276.89
2019-04-26T04:06:28.118Z,100277.29
2019-04-26T04:09:10.048Z,100279.29
2019-04-26T04:11:49.080Z,100274.03
2019-04-26T04:14:33.267Z,100278.83
2019-04-26T04:17:05.974Z,100277.78
2019-04-26T04:19:58.240Z,100277.94
2019-04-26T04:22:29.823Z,100273.44
2019-04-26T04:25:04.302Z,100275.10
2019-04-26T04:27:43.092Z,100268.59
2019-04-26T04:30:35.769Z,100274.58
2019-04-26T04:33:13.120Z,100273.33
2019-04-26T04:35:49.200Z,100274.80
2019-04-26T04:38:49.600Z,100274.48
2019-04-26T04:41:28.841Z,100271.86
2019-04-26T04:44:13.658Z,100279.42
2019-04-26T04:46:58.680Z,100275.24
2019-04-26T04:49:56.461Z,100281.13
2019-04-26T04:52:34.013Z,100277.08
2019-04-26T04:55:13.445Z,100280.48
2019-04-26T04:58:03.098Z,100284.52
2019-04-26T05:00:45.090Z,100272.67
2019-04-26T05:03:33.232Z,100275.02
2019-04-26T05:06:16.279Z,100280.33
2019-04-26T05:08:57.541Z,100278.58
2019-04-26T05:11:35.364Z,100279.73
2019-04-26T05:14:29.811Z,100276.20
2019-04-26T05:17:36.827Z,100275.55
2019-04-26T05:20:08.596Z,100271.50
2019-04-26T05:23:02.720Z,100278.47
2019-04-26T05:26:03.045Z,100279.45
2019-04-26T05:29:03.022Z,100275.79
2019-04-26T05:31:45.880Z,100273.67
2019-04-26T05:34:24.333Z,100265.52
2019-04-26T05:37:14.010Z,100266.63
2019-04-26T05:39:49.203Z,100266.13
2019-04-26T05:42:34.433Z,100268.69
2019-04-26T05:45:31.846Z,100268.16
2019-04-26T05:51:32.562Z,100284.11
2019-04-26T05:54:14.125Z,100301.91
2019-04-26T05:57:02.684Z,100295.23
2019-04-26T05:59:34.342Z,100276.31
2019-04-26T06:02:31.846Z,100274.82
2019-04-26T06:05:32.552Z,100284.95
2019-04-26T06:08:17.688Z,100289.45
2019-04-26T06:11:00.244Z,100280.00
2019-04-26T06:13:53.614Z,100279.30
2019-04-26T06:16:38.246Z,100273.16
2019-04-26T06:19:29.670Z,100275.19
2019-04-26T06:22:04.114Z,100268.06
2019-04-26T06:24:42.112Z,100270.05
2019-04-26T06:27:39.318Z,100271.50
2019-04-26T06:30:17.587Z,100268.28
2019-04-26T06:33:03.178Z,100268.23
2019-04-26T06:35:29.997Z,100275.17
2019-04-26T06:38:12.092Z,100267.87
2019-04-26T06:41:05.060Z,100266.22
2019-04-26T06:43:38.257Z,100259.38
2019-04-26T06:47:00.013Z,100262.09
2019-04-26T06:50:03.525Z,100262.82
2019-04-26T06:52:35.148Z,100252.63
2019-04-26T06:55:17.132Z,100252.50
2019-04-26T06:57:59.928Z,100247.55
2019-04-26T07:00:34.201Z,100244.69
2019-04-26T07:03:14.489Z,100239.86
2019-04-26T07:05:45.005Z,100236.99
2019-04-26T07:08:25.627Z,100235.64
2019-04-26T07:11:15.257Z,100235.50
2019-04-26T07:14:06.888Z,100232.44
2019-04-26T07:16:50.495Z,100244.45
2019-04-26T07:19:51.668Z,100242.84
2019-04-26T07:22:35.552Z,100243.09
2019-04-26T07:25:32.859Z,100247.17
2019-04-26T07:28:36.434Z,100243.62
2019-04-26T07:31:13.926Z,100240.92
2019-04-26T07:34:17.575Z,100241.99
2019-04-26T07:37:11.478Z,100243.30
2019-04-26T07:40:35.191Z,100244.83
2019-04-26T07:43:23.624Z,100256.28
2019-04-26T07:46:17.877Z,100253.42
2019-04-26T07:49:01.687Z,100246.67
2019-04-26T07:51:50.805Z,100243.83
2019-04-26T07:54:40.830Z,100237.83
2019-04-26T07:57:39.603Z,100244.48
2019-04-26T08:00:44.612Z,100249.16
2019-04-26T08:03:25.688Z,100251.67
2019-04-26T08:05:59.428Z,100259.13
2019-04-26T08:08:31.000Z,100255.91
2019-04-26T08:11:04.366Z,100258.61
2019-04-26T08:13:34.770Z,100257.99
2019-04-26T08:16:15.505Z,100260.97
2019-04-26T08:18:50.701Z,100261.23
2019-04-26T08:21:22.011Z,100257.16
2019-04-26T08:23:57.854Z,100257.99
2019-04-26T08:26:28.063Z,100255.00
2019-04-26T08:29:00.551Z,100252.27
2019-04-26T08:31:28.962Z,100253.58
2019-04-26T08:34:01.315Z,100241.63
2019-04-26T08:36:33.160Z,100240.56
2019-04-26T08:39:03.656Z,100241.42
2019-04-26T08:41:35.289Z,100241.92
2019-04-26T08:44:05.762Z,100237.37
2019-04-26T08:46:41.441Z,100244.20
2019-04-26T08:49:22.209Z,100237.93
2019-04-26T08:51:52.139Z,100240.12
2019-04-26T08:54:23.814Z,100249.64
2019-04-26T08:57:01.087Z,100244.48
2019-04-26T08:59:35.960Z,100243.58
2019-04-26T09:02:10.012Z,100245.85
2019-04-26T09:04:42.250Z,100247.23
2019-04-26T09:07:13.836Z,100247.68
2019-04-26T09:09:56.513Z,100250.88
2019-04-26T09:12:22.856Z,100243.09
2019-04-26T09:14:50.342Z,100238.99
2019-04-26T09:17:18.900Z,100241.14
2019-04-26T09:19:47.592Z,100239.89
2019-04-26T09:22:17.988Z,100233.41
2019-04-26T09:24:55.115Z,100233.64
2019-04-26T09:27:31.754Z,100235.41
2019-04-26T09:30:04.911Z,100237.22
2019-04-26T09:32:33.754Z,100229.86
2019-04-26T09:35:02.282Z,100232.01
2019-04-26T09:37:30.668Z,100237.05
2019-04-26T09:40:09.672Z,100237.13
2019-04-26T09:42:41.033Z,100226.61
2019-04-26T09:45:11.358Z,100226.98
2019-04-26T09:47:47.360Z,100227.82
2019-04-26T09:50:17.551Z,100231.31
2019-04-26T09:52:50.096Z,100239.11
2019-04-26T09:55:18.653Z,100235.67
2019-04-26T09:57:47.348Z,100240.64
2019-04-26T10:00:18.116Z,100247.42
2019-04-26T10:02:46.517Z,100248.25
2019-04-26T10:05:17.617Z,100255.62
2019-04-26T10:07:45.347Z,100248.27
2019-04-26T10:10:22.669Z,100252.08
2019-04-26T10:12:46.068Z,100248.55
2019-04-26T10:15:32.413Z,100239.20
2019-04-26T10:18:02.128Z,100235.94
2019-04-26T10:20:30.835Z,100241.56
2019-04-26T10:22:59.249Z,100238.84
2019-04-26T10:25:27.708Z,100238.03
2019-04-26T10:27:56.208Z,100231.80
2019-04-26T10:30:24.660Z,100231.78
2019-04-26T10:32:53.493Z,100228.39
2019-04-26T10:35:23.241Z,100226.66
2019-04-26T10:37:52.673Z,100224.38
2019-04-26T10:40:21.490Z,100220.93
2019-04-26T10:42:49.937Z,100223.78
2019-04-26T10:45:20.050Z,100227.00
2019-04-26T10:47:48.697Z,100226.31
2019-04-26T10:50:17.384Z,100229.27
2019-04-26T10:52:53.348Z,100232.80
2019-04-26T10:55:22.801Z,100227.89
2019-04-26T10:58:05.809Z,100230.76
2019-04-26T11:00:38.468Z,100226.05
2019-04-26T11:03:07.280Z,100223.70
2019-04-26T11:05:36.202Z,100221.80
2019-04-26T11:08:05.451Z,100216.86
2019-04-26T11:10:47.657Z,100218.39
2019-04-26T11:13:05.742Z,100207.86
2019-04-26T11:15:34.337Z,100212.22
2019-04-26T11:18:03.450Z,100213.42
2019-04-26T11:20:31.980Z,100209.25
2019-04-26T11:23:00.624Z,100205.55
2019-04-26T11:25:29.597Z,100203.28
2019-04-26T11:27:58.120Z,100208.77
2019-04-26T11:30:26.684Z,100202.41
2019-04-26T11:32:55.772Z,100207.11
2019-04-26T11:35:24.505Z,100206.95
2019-04-26T11:37:55.105Z,100203.31
2019-04-26T11:40:23.472Z,100212.23
2019-04-26T11:42:52.528Z,100216.20
2019-04-26T11:45:21.137Z,100207.66
2019-04-26T11:47:56.131Z,100211.04
2019-04-26T11:50:19.943Z,100215.75
2019-04-26T11:52:48.458Z,100221.56
2019-04-26T11:55:17.052Z,100214.46
2019-04-26T11:57:47.559Z,100209.92
2019-04-26T12:00:17.705Z,100209.88
2019-04-26T12:02:50.617Z,100214.86
2019-04-26T12:05:21.801Z,100221.98
2019-04-26T12:08:11.792Z,100220.56
2019-04-26T12:10:44.370Z,100224.63
2019-04-26T12:13:12.218Z,100238.55
2019-04-26T12:15:43.694Z,100239.00
2019-04-26T12:18:11.266Z,100242.55
2019-04-26T12:20:39.840Z,100240.97
2019-04-26T12:23:08.334Z,100241.69
2019-04-26T12:25:38.787Z,100240.38
2019-04-26T12:28:07.441Z,100246.41
2019-04-26T12:30:36.187Z,100241.39
2019-04-26T12:33:04.870Z,100241.64
2019-04-26T12:35:34.190Z,100244.13
2019-04-26T12:38:02.800Z,100243.01
2019-04-26T12:40:31.305Z,100244.95
2019-04-26T12:42:59.792Z,100240.09
2019-04-26T12:45:47.365Z,100241.72
2019-04-26T12:48:16.848Z,100252.11
2019-04-26T12:50:45.373Z,100241.17
2019-04-26T12:53:13.811Z,100239.53
2019-04-26T12:55:42.223Z,100237.28
2019-04-26T12:58:11.010Z,100237.88
2019-04-26T13:00:53.171Z,100248.05
2019-04-26T13:03:20.172Z,100240.34
2019-04-26T13:05:41.461Z,100236.92
2019-04-26T13:08:13.078Z,100229.45
2019-04-26T13:10:50.814Z,100231.80
2019-04-26T13:13:20.925Z,100234.00
2019-04-26T13:16:07.786Z,100242.29
2019-04-26T13:18:36.635Z,100240.72
2019-04-26T13:21:05.338Z,100239.02
2019-04-26T13:23:33.704Z,100228.45
2019-04-26T13:26:02.395Z,100233.67
2019-04-26T13:28:30.952Z,100229.77
2019-04-26T13:31:02.203Z,100227.13
2019-04-26T13:33:29.777Z,100214.53
2019-04-26T13:36:05.410Z,100222.28
2019-04-26T13:38:28.483Z,100217.34
2019-04-26T13:41:02.683Z,100218.98
2019-04-26T13:43:28.772Z,100221.27
2019-04-26T13:46:15.366Z,100225.30
2019-04-26T13:48:54.416Z,100226.09
2019-04-26T13:51:24.784Z,100229.79
2019-04-26T13:53:54.433Z,100225.83
2019-04-26T13:56:23.017Z,100234.45
2019-04-26T13:58:54.229Z,100234.39
2019-04-26T14:01:23.887Z,100229.20
2019-04-26T14:03:56.116Z,100225.88
2019-04-26T14:06:32.669Z,100224.23
2019-04-26T14:09:03.018Z,100221.03
2019-04-26T14:11:31.842Z,100218.00
2019-04-26T14:14:01.978Z,100213.55
2019-04-26T14:16:30.694Z,100221.27
2019-04-26T14:18:59.398Z,100228.02
2019-04-26T14:21:29.268Z,100222.91
2019-04-26T14:24:19.674Z,100229.76
2019-04-26T14:26:48.977Z,100231.88
2019-04-26T14:29:17.859Z,100228.66
2019-04-26T14:31:47.190Z,100231.62
2019-04-26T14:34:17.551Z,100218.23
2019-04-26T14:36:46.423Z,100232.77
2019-04-26T14:39:19.614Z,100220.97
2019-04-26T14:41:52.615Z,100219.63
2019-04-26T14:44:27.272Z,100222.12
2019-04-26T14:46:56.845Z,100219.24
2019-04-26T14:49:38.533Z,100228.05
2019-04-26T14:51:59.966Z,100226.41
2019-04-26T14:54:30.081Z,100233.72
2019-04-26T14:57:16.990Z,100222.39
2019-04-26T14:59:52.811Z,100226.78
2019-04-26T15:02:36.137Z,100228.73
2019-04-26T15:05:23.551Z,100235.50
2019-04-26T15:08:03.937Z,100222.81
2019-04-26T15:10:45.800Z,100228.22
2019-04-26T15:13:17.059Z,100226.08
2019-04-26T15:15:42.223Z,100232.12
2019-04-26T15:18:12.240Z,100237.83
2019-04-26T15:20:44.689Z,100230.31
2019-04-26T15:23:19.380Z,100231.63
2019-04-26T15:25:52.720Z,100234.95
2019-04-26T15:28:19.938Z,100248.96
2019-04-26T15:30:52.589Z,100240.05
2019-04-26T15:33:22.942Z,100244.22
2019-04-26T15:35:58.168Z,100243.44
2019-04-26T15:38:41.186Z,100243.50
2019-04-26T15:41:11.829Z,100257.27
2019-04-26T15:43:39.568Z,100258.04
2019-04-26T15:46:13.342Z,100251.75
2019-04-26T15:48:57.624Z,100253.45
2019-04-26T15:51:32.370Z,100256.38
2019-04-26T15:54:02.278Z,100249.81
2019-04-26T15:56:32.681Z,100242.04
2019-04-26T15:59:02.540Z,100250.31
2019-04-26T16:01:32.562Z,100253.91
2019-04-26T16:04:06.064Z,100256.09
2019-04-26T16:06:37.452Z,100267.00
2019-04-26T16:09:07.496Z,100274.59
2019-04-26T16:11:37.354Z,100274.95
2019-04-26T16:14:09.128Z,100280.98
2019-04-26T16:16:37.990Z,100283.20
2019-04-26T16:19:08.633Z,100281.02
2019-04-26T16:21:37.357Z,100298.25
2019-04-26T16:24:07.961Z,100291.73
2019-04-26T16:26:37.084Z,100295.52
2019-04-26T16:29:14.167Z,100299.91
2019-04-26T16:31:52.942Z,100300.73
2019-04-26T16:34:32.462Z,100298.34
2019-04-26T16:37:03.125Z,100297.52
2019-04-26T16:39:38.330Z,100295.88
2019-04-26T16:42:06.108Z,100299.16
2019-04-26T16:44:33.551Z,100295.63
2019-04-26T16:47:05.674Z,100284.75
2019-04-26T16:49:35.066Z,100281.75
2019-04-26T16:52:07.026Z,100278.76
2019-04-26T16:54:36.712Z,100276.03
2019-04-26T16:57:11.544Z,100275.75
2019-04-26T16:59:37.708Z,100289.38
2019-04-26T17:02:10.111Z,100290.17
2019-04-26T17:04:38.615Z,100291.81
2019-04-26T17:07:13.948Z,100304.32
2019-04-26T17:09:55.807Z,100301.61
2019-04-26T17:12:14.983Z,100314.64
2019-04-26T17:14:47.770Z,100318.44
2019-04-26T17:17:14.636Z,100325.53
2019-04-26T17:19:43.325Z,100324.69
2019-04-26T17:22:18.972Z,100330.34
2019-04-26T17:24:58.053Z,100335.94
2019-04-26T17:27:26.803Z,100339.45
2019-04-26T17:29:55.369Z,100347.79
2019-04-26T17:32:24.168Z,100343.30
2019-04-26T17:34:54.587Z,100361.72
2019-04-26T17:37:26.331Z,100368.56
2019-04-26T17:39:55.336Z,100379.08
2019-04-26T17:42:25.136Z,100378.88
2019-04-26T17:44:57.535Z,100378.19
2019-04-26T17:47:34.698Z,100384.51
2019-04-26T17:50:05.215Z,100384.44
2019-04-26T17:52:36.149Z,100394.13
2019-04-26T17:55:07.766Z,100367.70
2019-04-26T17:57:43.561Z,100381.45
2019-04-26T18:00:15.402Z,100374.73
2019-04-26T18:02:48.025Z,100369.77
2019-04-26T18:05:19.012Z,100370.77
2019-04-26T18:07:55.849Z,100370.44
2019-04-26T18:10:21.515Z,100370.48
2019-04-26T18:12:51.672Z,100364.02
2019-04-26T18:15:24.012Z,100355.42
2019-04-26T18:17:54.236Z,100355.42
2019-04-26T18:20:37.458Z,100364.59
2019-04-26T18:23:05.523Z,100373.25
2019-04-26T18:25:34.890Z,100381.27
2019-04-26T18:28:08.724Z,100392.61
2019-04-26T18:30:40.321Z,100396.27
2019-04-26T18:33:08.952Z,100404.70
2019-04-26T18:35:41.919Z,100411.86
2019-04-26T18:38:12.573Z,100419.23
2019-04-26T18:40:57.151Z,100423.02
2019-04-26T18:43:12.499Z,100426.12
2019-04-26T18:45:49.493Z,100418.52
2019-04-26T18:48:18.531Z,100416.55
2019-04-26T18:50:53.322Z,100420.31
2019-04-26T18:53:25.178Z,100432.45
2019-04-26T18:55:54.721Z,100447.56
2019-04-26T18:58:23.631Z,100460.68
2019-04-26T19:00:57.368Z,100464.52
2019-04-26T19:03:29.976Z,100460.68
2019-04-26T19:05:58.421Z,100469.41
2019-04-26T19:08:28.707Z,100478.75
2019-04-26T19:11:03.070Z,100475.59
2019-04-26T19:13:46.436Z,100478.55
2019-04-26T19:16:18.334Z,100475.68
2019-04-26T19:18:52.303Z,100483.25
2019-04-26T19:21:38.693Z,100492.91
2019-04-26T19:24:07.412Z,100504.55
2019-04-26T19:26:35.241Z,100479.89
2019-04-26T19:29:15.506Z,100504.33
2019-04-26T19:31:34.265Z,100507.22
2019-04-26T19:34:03.469Z,100502.03
2019-04-26T19:36:35.547Z,100496.57
2019-04-26T19:39:05.496Z,100510.61
2019-04-26T19:41:34.114Z,100506.59
2019-04-26T19:44:04.185Z,100513.03
2019-04-26T19:46:37.483Z,100515.05
2019-04-26T19:49:29.608Z,100518.22
2019-04-26T19:52:03.838Z,100514.89
2019-04-26T19:54:51.254Z,100523.98
2019-04-26T19:57:24.235Z,100527.59
2019-04-26T19:59:53.000Z,100538.23
2019-04-26T20:02:21.518Z,100535.80
2019-04-26T20:04:51.353Z,100537.80
2019-04-26T20:07:20.021Z,100548.36
2019-04-26T20:09:49.110Z,100544.97
2019-04-26T20:12:25.119Z,100545.11
2019-04-26T20:14:58.059Z,100540.53
2019-04-26T20:17:24.015Z,100537.64
2019-04-26T20:19:55.383Z,100542.08
2019-04-26T20:22:28.306Z,100547.39
2019-04-26T20:24:57.477Z,100555.43
2019-04-26T20:27:27.787Z,100561.84
2019-04-26T20:29:55.264Z,100566.72
2019-04-26T20:32:34.085Z,100578.34
2019-04-26T20:35:07.322Z,100580.70
2019-04-26T20:37:35.713Z,100573.09
2019-04-26T20:40:18.649Z,100569.84
2019-04-26T20:42:36.871Z,100569.31
2019-04-26T20:45:08.429Z,100561.30
2019-04-26T20:47:36.771Z,100563.81
2019-04-26T20:50:07.227Z,100559.40
2019-04-26T20:52:35.760Z,100576.77
2019-04-26T20:55:05.654Z,100583.70
2019-04-26T20:57:34.572Z,100585.09
2019-04-26T21:00:05.519Z,100581.00
2019-04-26T21:02:34.101Z,100580.42
2019-04-26T21:05:06.237Z,100594.67
2019-04-26T21:07:34.092Z,100610.94
2019-04-26T21:10:02.856Z,100602.69
2019-04-26T21:12:31.471Z,100589.06
2019-04-26T21:15:00.075Z,100586.28
2019-04-26T21:17:28.997Z,100585.06
2019-04-26T21:19:58.645Z,100578.18
2019-04-26T21:22:28.775Z,100562.52
2019-04-26T21:25:04.375Z,100539.41
2019-04-26T21:27:33.444Z,100514.97
2019-04-26T21:30:06.347Z,100513.46
2019-04-26T21:32:43.742Z,100544.21
2019-04-26T21:35:14.177Z,100563.77
2019-04-26T21:38:00.952Z,100548.34
2019-04-26T21:40:30.970Z,100564.41
2019-04-26T21:43:00.560Z,100575.66
2019-04-26T21:45:31.000Z,100557.08
2019-04-26T21:48:02.606Z,100559.12
2019-04-26T21:50:35.769Z,100562.47
2019-04-26T21:53:03.467Z,100580.77
2019-04-26T21:55:35.286Z,100589.95
2019-04-26T21:58:02.723Z,100586.59
2019-04-26T22:00:33.424Z,100592.27
2019-04-26T22:03:03.683Z,100599.61
2019-04-26T22:05:35.116Z,100590.09
2019-04-26T22:08:03.753Z,100572.72
2019-04-26T22:10:39.594Z,100554.14
2019-04-26T22:13:08.530Z,100539.42
2019-04-26T22:15:41.644Z,100551.50
2019-04-26T22:18:21.649Z,100564.44
2019-04-26T22:20:54.034Z,100600.58
2019-04-26T22:23:25.402Z,100629.41
2019-04-26T22:25:56.045Z,100651.27
2019-04-26T22:28:26.852Z,100657.31
2019-04-26T22:30:55.181Z,100671.78
2019-04-26T22:33:27.336Z,100665.47
2019-04-26T22:35:55.314Z,100673.00
2019-04-26T22:38:26.754Z,100670.75
2019-04-26T22:40:56.094Z,100682.02
2019-04-26T22:43:38.392Z,100680.58
2019-04-26T22:46:11.200Z,100681.04
2019-04-26T22:48:41.650Z,100684.87
2019-04-26T22:51:10.108Z,100681.22
2019-04-26T22:53:38.557Z,100687.45
2019-04-26T22:56:07.103Z,100697.80
2019-04-26T22:58:35.766Z,100700.29
2019-04-26T23:01:06.224Z,100723.00
2019-04-26T23:03:36.635Z,100726.00
2019-04-26T23:06:07.798Z,100731.38
2019-04-26T23:08:38.134Z,100754.24
2019-04-26T23:11:09.076Z,100750.44
2019-04-26T23:13:44.565Z,100756.23
2019-04-26T23:16:17.314Z,100749.51
2019-04-26T23:18:50.341Z,100742.39
2019-04-26T23:21:26.515Z,100737.92
2019-04-26T23:23:54.962Z,100733.94
2019-04-26T23:26:23.696Z,100737.69
2019-04-26T23:28:53.521Z,100738.26
2019-04-26T23:31:23.735Z,100732.39
2019-04-26T23:33:53.758Z,100729.90
2019-04-26T23:36:24.081Z,100732.37
2019-04-26T23:38:53.197Z,100731.74
2019-04-26T23:41:23.606Z,100731.28
2019-04-26T23:43:56.747Z,100718.16
2019-04-26T23:46:25.712Z,100718.23
2019-04-26T23:48:53.822Z,100724.17
2019-04-26T23:51:23.807Z,100726.88
2019-04-26T23:53:54.927Z,100716.12
2019-04-26T23:56:25.309Z,100706.32
2019-04-26T23:58:53.466Z,100696.17
